createdAt,value
2023-03-29T00:00:15.816Z,63.31
2023-03-29T00:03:04.414Z,63.28
2023-03-29T00:05:35.057Z,63.26
2023-03-29T00:08:04.374Z,63.41
2023-03-29T00:10:33.809Z,63.41
2023-03-29T00:13:02.839Z,63.50
2023-03-29T00:15:30.826Z,63.62
2023-03-29T00:17:58.719Z,63.55
2023-03-29T00:20:27.073Z,63.58
2023-03-29T00:22:54.873Z,63.59
2023-03-29T00:25:22.910Z,63.69
2023-03-29T00:27:50.740Z,63.73
2023-03-29T00:30:18.770Z,63.74
2023-03-29T00:32:47.170Z,63.70
2023-03-29T00:35:15.151Z,63.73
2023-03-29T00:37:43.397Z,63.77
2023-03-29T00:40:15.471Z,63.84
2023-03-29T00:42:46.479Z,63.85
2023-03-29T00:45:30.464Z,63.88
2023-03-29T00:48:02.899Z,63.93
2023-03-29T00:50:36.345Z,63.97
2023-03-29T00:53:06.984Z,63.97
2023-03-29T00:56:16.895Z,63.95
2023-03-29T00:58:51.980Z,63.92
2023-03-29T01:01:28.307Z,63.83
2023-03-29T01:04:18.699Z,63.85
2023-03-29T01:06:54.238Z,63.94
2023-03-29T01:09:27.065Z,63.86
2023-03-29T01:11:57.641Z,63.94
2023-03-29T01:14:33.910Z,63.94
2023-03-29T01:17:02.212Z,64.17
2023-03-29T01:19:38.725Z,63.99
2023-03-29T01:22:30.966Z,64.07
2023-03-29T01:25:07.363Z,64.12
2023-03-29T01:27:41.477Z,64.17
2023-03-29T01:30:14.351Z,64.06
2023-03-29T01:32:50.555Z,64.16
2023-03-29T01:35:25.001Z,64.19
2023-03-29T01:38:00.540Z,64.23
2023-03-29T01:40:28.479Z,64.22
2023-03-29T01:43:11.543Z,64.22
2023-03-29T01:46:19.114Z,64.16
2023-03-29T01:48:54.948Z,64.16
2023-03-29T01:51:29.326Z,64.21
2023-03-29T01:54:03.222Z,64.22
2023-03-29T01:56:36.868Z,64.20
2023-03-29T01:59:11.259Z,64.19
2023-03-29T02:01:49.272Z,64.22
2023-03-29T02:04:27.808Z,64.18
2023-03-29T02:06:59.374Z,64.14
2023-03-29T02:09:29.346Z,64.16
2023-03-29T02:12:00.924Z,64.08
2023-03-29T02:14:30.436Z,64.11
2023-03-29T02:17:20.308Z,64.12
2023-03-29T02:19:53.483Z,64.19
2023-03-29T02:22:28.597Z,64.12
2023-03-29T02:24:59.515Z,64.15
2023-03-29T02:27:29.587Z,64.17
2023-03-29T02:29:58.597Z,64.10
2023-03-29T02:32:48.873Z,64.07
2023-03-29T02:35:34.439Z,64.00
2023-03-29T02:38:10.503Z,64.06
2023-03-29T02:40:39.749Z,64.19
2023-03-29T02:43:09.210Z,64.27
2023-03-29T02:45:39.966Z,64.18
2023-03-29T02:48:12.644Z,64.11
2023-03-29T02:50:43.057Z,64.10
2023-03-29T02:53:18.057Z,64.15
2023-03-29T02:55:46.953Z,64.13
2023-03-29T02:58:15.563Z,64.02
2023-03-29T03:00:48.849Z,64.13
2023-03-29T03:03:17.088Z,64.30
2023-03-29T03:05:46.829Z,64.26
2023-03-29T03:08:15.461Z,64.34
2023-03-29T03:10:43.291Z,64.31
2023-03-29T03:13:11.694Z,64.37
2023-03-29T03:15:42.815Z,64.32
2023-03-29T03:18:10.859Z,64.40
2023-03-29T03:20:40.176Z,64.33
2023-03-29T03:23:12.058Z,64.51
2023-03-29T03:25:40.116Z,64.49
2023-03-29T03:28:08.061Z,64.52
2023-03-29T03:30:35.861Z,64.56
2023-03-29T03:33:32.657Z,64.50
2023-03-29T03:36:29.167Z,64.50
2023-03-29T03:38:57.686Z,64.40
2023-03-29T03:41:26.352Z,64.55
2023-03-29T03:43:54.996Z,64.42
2023-03-29T03:46:23.615Z,64.40
2023-03-29T03:48:51.655Z,64.44
2023-03-29T03:51:28.763Z,64.55
2023-03-29T03:53:56.927Z,64.51
2023-03-29T03:56:37.396Z,64.45
2023-03-29T03:59:05.802Z,64.54
2023-03-29T04:01:43.414Z,64.42
2023-03-29T04:04:19.871Z,64.45
2023-03-29T04:07:03.755Z,64.49
2023-03-29T04:09:55.580Z,64.45
2023-03-29T04:12:46.600Z,64.42
2023-03-29T04:15:14.530Z,64.40
2023-03-29T04:17:47.800Z,64.41
2023-03-29T04:20:27.102Z,64.55
2023-03-29T04:22:55.258Z,64.41
2023-03-29T04:25:24.102Z,64.47
2023-03-29T04:28:21.512Z,64.34
2023-03-29T04:30:53.227Z,64.37
2023-03-29T04:33:31.889Z,64.25
2023-03-29T04:36:01.834Z,64.09
2023-03-29T04:38:31.942Z,64.20
2023-03-29T04:41:01.142Z,64.06
2023-03-29T04:44:08.426Z,63.91
2023-03-29T04:46:37.779Z,63.99
2023-03-29T04:49:06.400Z,64.02
2023-03-29T04:51:36.533Z,63.99
2023-03-29T04:54:04.732Z,63.93
2023-03-29T04:56:39.472Z,63.97
2023-03-29T04:59:28.266Z,63.97
2023-03-29T05:01:56.553Z,63.99
2023-03-29T05:04:24.727Z,63.97
2023-03-29T05:07:04.544Z,63.93
2023-03-29T05:09:35.457Z,63.72
2023-03-29T05:12:05.020Z,63.74
2023-03-29T05:14:41.347Z,63.75
2023-03-29T05:17:09.374Z,63.64
2023-03-29T05:19:38.392Z,63.66
2023-03-29T05:22:08.972Z,63.61
2023-03-29T05:24:37.517Z,63.66
2023-03-29T05:27:12.952Z,63.56
2023-03-29T05:29:41.072Z,63.46
2023-03-29T05:32:22.231Z,63.47
2023-03-29T05:34:50.391Z,63.39
2023-03-29T05:37:18.857Z,63.33
2023-03-29T05:39:50.562Z,63.09
2023-03-29T05:42:22.562Z,62.63
2023-03-29T05:44:55.558Z,62.79
2023-03-29T05:47:24.801Z,62.99
2023-03-29T05:49:52.761Z,62.82
2023-03-29T05:52:24.642Z,62.63
2023-03-29T05:54:52.877Z,62.53
2023-03-29T05:57:21.495Z,62.34
2023-03-29T05:59:49.435Z,62.12
2023-03-29T06:02:17.405Z,62.07
2023-03-29T06:04:49.366Z,62.03
2023-03-29T06:07:23.544Z,61.90
2023-03-29T06:10:21.074Z,61.77
2023-03-29T06:12:52.110Z,61.66
2023-03-29T06:15:22.449Z,61.63
2023-03-29T06:17:53.173Z,61.37
2023-03-29T06:20:21.527Z,61.38
2023-03-29T06:22:53.482Z,61.24
2023-03-29T06:25:21.430Z,61.05
2023-03-29T06:27:49.991Z,61.19
2023-03-29T06:30:19.284Z,61.44
2023-03-29T06:32:50.578Z,61.45
2023-03-29T06:35:44.196Z,61.35
2023-03-29T06:38:15.351Z,61.33
2023-03-29T06:41:07.372Z,61.15
2023-03-29T06:43:55.604Z,61.21
2023-03-29T06:46:26.253Z,60.99
2023-03-29T06:48:56.976Z,60.75
2023-03-29T06:51:27.660Z,60.61
2023-03-29T06:53:55.557Z,60.49
2023-03-29T06:56:23.935Z,60.53
2023-03-29T06:59:03.400Z,60.35
2023-03-29T07:01:43.097Z,61.79
2023-03-29T07:04:18.909Z,62.97
2023-03-29T07:07:20.062Z,62.89
2023-03-29T07:09:54.090Z,62.05
2023-03-29T07:12:49.075Z,61.40
2023-03-29T07:15:17.347Z,60.52
2023-03-29T07:18:05.599Z,60.27
2023-03-29T07:20:34.338Z,59.63
2023-03-29T07:23:11.492Z,59.60
2023-03-29T07:25:40.991Z,59.47
2023-03-29T07:28:09.235Z,59.40
2023-03-29T07:30:37.325Z,59.45
2023-03-29T07:33:17.877Z,59.10
2023-03-29T07:35:51.043Z,59.20
2023-03-29T07:38:18.948Z,59.15
2023-03-29T07:40:50.026Z,59.17
2023-03-29T07:43:36.512Z,59.05
2023-03-29T07:46:06.135Z,58.98
2023-03-29T07:48:37.165Z,58.75
2023-03-29T07:51:07.680Z,58.31
2023-03-29T07:53:55.770Z,58.23
2023-03-29T07:56:31.828Z,58.08
2023-03-29T07:59:22.304Z,57.86
2023-03-29T08:01:56.741Z,57.89
2023-03-29T08:04:32.947Z,57.90
2023-03-29T08:07:21.183Z,57.50
2023-03-29T08:10:10.425Z,57.38
2023-03-29T08:12:50.560Z,57.31
2023-03-29T08:15:20.009Z,57.15
2023-03-29T08:17:48.366Z,57.17
2023-03-29T08:20:16.554Z,57.02
2023-03-29T08:22:46.311Z,56.89
2023-03-29T08:25:32.921Z,56.82
2023-03-29T08:28:01.033Z,56.51
2023-03-29T08:30:55.069Z,56.45
2023-03-29T08:33:23.244Z,56.20
2023-03-29T08:36:04.146Z,56.05
2023-03-29T08:38:34.121Z,55.96
2023-03-29T08:41:12.801Z,56.09
2023-03-29T08:44:04.794Z,55.92
2023-03-29T08:47:05.118Z,55.70
2023-03-29T08:49:39.898Z,55.37
2023-03-29T08:52:19.714Z,55.21
2023-03-29T08:54:51.773Z,55.36
2023-03-29T08:57:49.542Z,55.39
2023-03-29T09:00:31.190Z,55.15
2023-03-29T09:03:02.380Z,55.00
2023-03-29T09:05:35.148Z,54.81
2023-03-29T09:08:19.674Z,54.94
2023-03-29T09:11:03.285Z,54.73
2023-03-29T09:14:03.365Z,54.58
2023-03-29T09:16:57.052Z,54.47
2023-03-29T09:19:49.242Z,54.23
2023-03-29T09:22:55.127Z,53.70
2023-03-29T09:25:50.675Z,53.92
2023-03-29T09:28:37.059Z,53.79
2023-03-29T09:31:22.952Z,53.66
2023-03-29T09:34:10.464Z,53.60
2023-03-29T09:37:04.088Z,53.36
2023-03-29T09:39:32.753Z,53.13
2023-03-29T09:42:09.364Z,53.19
2023-03-29T09:44:38.075Z,53.08
2023-03-29T09:47:15.515Z,52.89
2023-03-29T09:49:47.892Z,52.77
2023-03-29T09:52:17.610Z,52.59
2023-03-29T09:54:52.460Z,52.52
2023-03-29T09:57:47.198Z,52.45
2023-03-29T10:00:17.109Z,52.08
2023-03-29T10:02:57.146Z,51.82
2023-03-29T10:05:36.739Z,52.00
2023-03-29T10:08:28.060Z,52.09
2023-03-29T10:11:00.308Z,51.67
2023-03-29T10:13:31.103Z,51.55
2023-03-29T10:16:04.630Z,51.26
2023-03-29T10:18:38.995Z,51.37
2023-03-29T10:21:07.451Z,51.42
2023-03-29T10:23:38.019Z,51.25
2023-03-29T10:26:11.710Z,51.25
2023-03-29T10:28:40.031Z,51.25
2023-03-29T10:31:17.817Z,50.98
2023-03-29T10:33:52.437Z,50.58
2023-03-29T10:36:22.482Z,50.74
2023-03-29T10:38:52.803Z,50.49
2023-03-29T10:41:23.136Z,50.45
2023-03-29T10:43:51.691Z,50.40
2023-03-29T10:46:22.506Z,50.07
2023-03-29T10:48:55.792Z,50.18
2023-03-29T10:51:25.286Z,50.20
2023-03-29T10:53:53.319Z,50.25
2023-03-29T10:56:41.505Z,50.15
2023-03-29T10:59:33.973Z,50.08
2023-03-29T11:02:14.162Z,50.09
2023-03-29T11:04:47.736Z,49.88
2023-03-29T11:07:25.444Z,49.49
2023-03-29T11:10:08.681Z,49.64
2023-03-29T11:12:48.291Z,49.59
2023-03-29T11:15:39.126Z,49.64
2023-03-29T11:18:22.300Z,49.80
2023-03-29T11:21:02.259Z,49.66
2023-03-29T11:23:46.072Z,49.55
2023-03-29T11:26:27.654Z,49.15
2023-03-29T11:29:20.859Z,49.21
2023-03-29T11:32:01.014Z,49.17
2023-03-29T11:34:43.407Z,49.10
2023-03-29T11:37:28.733Z,48.52
2023-03-29T11:40:21.883Z,48.47
2023-03-29T11:42:54.113Z,48.82
2023-03-29T11:45:37.508Z,48.76
2023-03-29T11:48:13.489Z,48.95
2023-03-29T11:51:11.301Z,48.61
2023-03-29T11:53:49.014Z,48.40
2023-03-29T11:56:29.185Z,48.09
2023-03-29T11:59:05.343Z,48.14
2023-03-29T12:02:05.324Z,48.08
2023-03-29T12:04:40.638Z,47.81
2023-03-29T12:07:11.456Z,47.61
2023-03-29T12:09:46.843Z,47.47
2023-03-29T12:12:27.057Z,47.52
2023-03-29T12:15:10.962Z,47.37
2023-03-29T12:18:01.779Z,47.11
2023-03-29T12:20:34.910Z,47.02
2023-03-29T12:23:06.089Z,46.83
2023-03-29T12:26:10.746Z,46.84
2023-03-29T12:29:05.469Z,46.75
2023-03-29T12:32:11.481Z,46.66
2023-03-29T12:35:15.422Z,46.86
2023-03-29T12:38:22.930Z,46.75
2023-03-29T12:41:19.076Z,46.52
2023-03-29T12:44:06.861Z,46.76
2023-03-29T12:46:59.259Z,46.85
2023-03-29T12:49:31.788Z,46.69
2023-03-29T12:52:02.456Z,46.47
2023-03-29T12:54:33.805Z,46.37
2023-03-29T12:57:19.786Z,46.21
2023-03-29T12:59:49.530Z,46.33
2023-03-29T13:02:18.010Z,46.40
2023-03-29T13:04:52.554Z,46.08
2023-03-29T13:07:23.395Z,46.23
2023-03-29T13:10:00.232Z,46.17
2023-03-29T13:12:36.779Z,46.14
2023-03-29T13:15:23.118Z,46.08
2023-03-29T13:18:00.054Z,45.92
2023-03-29T13:20:43.320Z,45.91
2023-03-29T13:23:36.340Z,45.73
2023-03-29T13:26:19.032Z,45.57
2023-03-29T13:29:01.431Z,45.37
2023-03-29T13:31:50.449Z,45.61
2023-03-29T13:34:31.032Z,45.74
2023-03-29T13:37:48.755Z,45.54
2023-03-29T13:40:38.904Z,45.64
2023-03-29T13:43:22.228Z,45.73
2023-03-29T13:45:58.897Z,45.65
2023-03-29T13:48:29.377Z,45.67
2023-03-29T13:51:02.157Z,45.65
2023-03-29T13:53:39.061Z,45.76
2023-03-29T13:56:15.239Z,45.74
2023-03-29T13:58:48.207Z,45.72
2023-03-29T14:01:43.638Z,45.70
2023-03-29T14:04:18.228Z,45.71
2023-03-29T14:06:53.060Z,45.70
2023-03-29T14:09:30.007Z,45.75
2023-03-29T14:12:01.367Z,45.66
2023-03-29T14:14:32.156Z,45.83
2023-03-29T14:17:00.796Z,45.76
2023-03-29T14:19:32.970Z,45.85
2023-03-29T14:22:02.760Z,46.01
2023-03-29T14:24:38.460Z,45.91
2023-03-29T14:27:11.594Z,46.02
2023-03-29T14:29:39.769Z,46.10
2023-03-29T14:32:13.389Z,46.16
2023-03-29T14:34:41.919Z,46.21
2023-03-29T14:37:16.953Z,46.29
2023-03-29T14:39:45.753Z,46.17
2023-03-29T14:42:24.454Z,46.08
2023-03-29T14:44:58.479Z,46.04
2023-03-29T14:47:29.528Z,46.19
2023-03-29T14:50:00.864Z,46.12
2023-03-29T14:52:30.783Z,46.07
2023-03-29T14:55:01.953Z,46.25
2023-03-29T14:57:35.579Z,46.18
2023-03-29T15:00:19.510Z,46.22
2023-03-29T15:02:54.622Z,46.49
2023-03-29T15:05:31.194Z,46.40
2023-03-29T15:08:00.315Z,46.39
2023-03-29T15:10:32.256Z,46.40
2023-03-29T15:13:03.450Z,46.31
2023-03-29T15:15:38.459Z,46.44
2023-03-29T15:18:08.344Z,46.27
2023-03-29T15:20:41.241Z,46.28
2023-03-29T15:23:22.506Z,46.27
2023-03-29T15:25:58.737Z,46.21
2023-03-29T15:28:33.015Z,46.31
2023-03-29T15:31:26.374Z,46.35
2023-03-29T15:34:27.659Z,46.30
2023-03-29T15:36:57.856Z,46.46
2023-03-29T15:39:30.384Z,46.57
2023-03-29T15:41:58.455Z,46.64
2023-03-29T15:44:29.355Z,46.66
2023-03-29T15:46:58.382Z,46.86
2023-03-29T15:49:26.702Z,46.74
2023-03-29T15:51:54.804Z,46.83
2023-03-29T15:54:25.279Z,46.84
2023-03-29T15:56:59.458Z,47.03
2023-03-29T15:59:27.701Z,46.94
2023-03-29T16:01:56.721Z,47.04
2023-03-29T16:04:25.724Z,47.00
2023-03-29T16:06:55.298Z,47.24
2023-03-29T16:09:23.643Z,47.33
2023-03-29T16:11:51.844Z,47.44
2023-03-29T16:14:25.432Z,47.50
2023-03-29T16:16:55.492Z,47.49
2023-03-29T16:19:25.051Z,47.55
2023-03-29T16:21:54.034Z,47.60
2023-03-29T16:24:24.655Z,47.70
2023-03-29T16:26:55.323Z,47.70
2023-03-29T16:29:24.748Z,47.69
2023-03-29T16:31:53.678Z,47.86
2023-03-29T16:34:22.760Z,47.86
2023-03-29T16:36:51.048Z,48.03
2023-03-29T16:39:18.932Z,48.14
2023-03-29T16:41:48.941Z,48.27
2023-03-29T16:44:22.451Z,48.27
2023-03-29T16:46:54.231Z,48.27
2023-03-29T16:49:22.432Z,48.20
2023-03-29T16:51:50.432Z,48.31
2023-03-29T16:54:19.010Z,48.44
2023-03-29T16:56:47.345Z,48.63
2023-03-29T16:59:15.434Z,48.71
2023-03-29T17:01:43.456Z,48.76
2023-03-29T17:04:14.089Z,48.91
2023-03-29T17:06:42.106Z,48.96
2023-03-29T17:09:10.057Z,49.03
2023-03-29T17:11:38.020Z,49.15
2023-03-29T17:14:06.232Z,49.24
2023-03-29T17:16:34.221Z,49.44
2023-03-29T17:19:02.441Z,49.39
2023-03-29T17:21:30.788Z,49.44
2023-03-29T17:23:58.800Z,49.62
2023-03-29T17:26:26.802Z,49.67
2023-03-29T17:28:54.804Z,49.77
2023-03-29T17:31:22.850Z,49.81
2023-03-29T17:33:52.115Z,49.92
2023-03-29T17:36:24.144Z,50.05
2023-03-29T17:38:52.178Z,50.18
2023-03-29T17:41:21.413Z,50.15
2023-03-29T17:43:50.926Z,50.38
2023-03-29T17:46:22.852Z,50.49
2023-03-29T17:48:51.359Z,50.55
2023-03-29T17:51:19.969Z,50.62
2023-03-29T17:53:47.911Z,50.74
2023-03-29T17:56:16.135Z,50.86
2023-03-29T17:58:44.009Z,50.88
2023-03-29T18:01:13.653Z,50.92
2023-03-29T18:03:42.211Z,51.02
2023-03-29T18:06:11.522Z,51.23
2023-03-29T18:08:40.627Z,51.35
2023-03-29T18:11:11.768Z,51.43
2023-03-29T18:13:39.960Z,51.51
2023-03-29T18:16:09.179Z,51.60
2023-03-29T18:18:38.369Z,51.69
2023-03-29T18:21:10.140Z,51.73
2023-03-29T18:23:40.077Z,51.90
2023-03-29T18:26:09.445Z,51.97
2023-03-29T18:28:37.730Z,52.11
2023-03-29T18:31:06.439Z,52.19
2023-03-29T18:33:38.007Z,52.35
2023-03-29T18:36:10.794Z,52.44
2023-03-29T18:38:43.272Z,52.55
2023-03-29T18:41:12.903Z,52.58
2023-03-29T18:43:42.990Z,52.59
2023-03-29T18:46:11.225Z,52.65
2023-03-29T18:48:39.345Z,52.77
2023-03-29T18:51:09.835Z,52.96
2023-03-29T18:53:39.231Z,52.97
2023-03-29T18:56:08.012Z,53.12
2023-03-29T18:58:36.384Z,53.20
2023-03-29T19:01:05.982Z,53.31
2023-03-29T19:03:34.960Z,53.46
2023-03-29T19:06:04.085Z,53.49
2023-03-29T19:08:34.226Z,53.62
2023-03-29T19:11:05.525Z,53.73
2023-03-29T19:13:33.908Z,53.75
2023-03-29T19:16:02.280Z,53.71
2023-03-29T19:18:30.971Z,53.86
2023-03-29T19:20:59.049Z,53.92
2023-03-29T19:23:28.251Z,54.06
2023-03-29T19:26:03.717Z,54.21
2023-03-29T19:28:33.736Z,54.23
2023-03-29T19:31:03.273Z,54.31
2023-03-29T19:33:32.373Z,54.31
2023-03-29T19:36:00.681Z,54.41
2023-03-29T19:38:28.670Z,54.47
2023-03-29T19:40:56.641Z,54.54
2023-03-29T19:43:24.900Z,54.57
2023-03-29T19:45:53.029Z,54.72
2023-03-29T19:48:23.952Z,54.97
2023-03-29T19:50:52.549Z,54.92
2023-03-29T19:53:21.205Z,54.93
2023-03-29T19:55:49.548Z,55.01
2023-03-29T19:58:17.420Z,55.16
2023-03-29T20:00:45.454Z,55.20
2023-03-29T20:03:14.021Z,55.23
2023-03-29T20:05:42.371Z,55.33
2023-03-29T20:08:10.392Z,55.38
2023-03-29T20:10:38.427Z,55.60
2023-03-29T20:13:06.670Z,55.54
2023-03-29T20:15:35.022Z,55.68
2023-03-29T20:18:03.664Z,55.85
2023-03-29T20:20:31.903Z,55.85
2023-03-29T20:23:04.657Z,55.93
2023-03-29T20:25:36.117Z,56.10
2023-03-29T20:28:04.811Z,56.14
2023-03-29T20:30:32.908Z,56.08
2023-03-29T20:33:00.952Z,56.06
2023-03-29T20:35:28.868Z,56.26
2023-03-29T20:37:56.696Z,56.30
2023-03-29T20:40:24.787Z,56.31
2023-03-29T20:42:54.256Z,56.41
2023-03-29T20:45:22.160Z,56.49
2023-03-29T20:48:02.107Z,56.50
2023-03-29T20:50:30.058Z,56.52
2023-03-29T20:53:02.209Z,56.58
2023-03-29T20:55:33.260Z,56.71
2023-03-29T20:58:02.377Z,56.75
2023-03-29T21:00:32.883Z,56.70
2023-03-29T21:03:03.421Z,56.70
2023-03-29T21:05:33.154Z,56.85
2023-03-29T21:08:02.462Z,56.98
2023-03-29T21:10:30.871Z,56.95
2023-03-29T21:13:02.807Z,57.02
2023-03-29T21:15:31.946Z,57.01
2023-03-29T21:17:59.982Z,57.12
2023-03-29T21:20:27.873Z,57.30
2023-03-29T21:22:55.961Z,57.20
2023-03-29T21:25:23.816Z,57.31
2023-03-29T21:27:51.661Z,57.36
2023-03-29T21:30:19.477Z,57.42
2023-03-29T21:32:47.433Z,57.45
2023-03-29T21:35:15.635Z,57.52
2023-03-29T21:37:43.431Z,57.48
2023-03-29T21:40:12.641Z,57.64
2023-03-29T21:42:40.475Z,57.61
2023-03-29T21:45:09.276Z,57.68
2023-03-29T21:47:37.204Z,57.81
2023-03-29T21:50:05.958Z,57.90
2023-03-29T21:52:33.848Z,57.88
2023-03-29T21:55:01.721Z,57.94
2023-03-29T21:57:29.779Z,58.04
2023-03-29T21:59:57.790Z,58.09
2023-03-29T22:02:25.792Z,58.06
2023-03-29T22:04:53.692Z,57.95
2023-03-29T22:07:26.495Z,58.11
2023-03-29T22:09:54.721Z,58.14
2023-03-29T22:12:22.746Z,58.12
2023-03-29T22:14:50.640Z,58.19
2023-03-29T22:17:19.219Z,58.25
2023-03-29T22:19:47.525Z,58.33
2023-03-29T22:22:15.391Z,58.26
2023-03-29T22:24:43.286Z,58.34
2023-03-29T22:27:11.798Z,58.36
2023-03-29T22:29:39.612Z,58.42
2023-03-29T22:32:07.457Z,58.44
2023-03-29T22:34:35.407Z,58.36
2023-03-29T22:37:03.354Z,58.46
2023-03-29T22:39:31.179Z,58.43
2023-03-29T22:41:59.117Z,58.51
2023-03-29T22:44:27.157Z,58.47
2023-03-29T22:46:55.773Z,58.50
2023-03-29T22:49:23.737Z,58.55
2023-03-29T22:51:51.717Z,58.65
2023-03-29T22:54:19.531Z,58.63
2023-03-29T22:56:47.460Z,58.74
2023-03-29T22:59:15.889Z,58.63
2023-03-29T23:01:43.730Z,58.81
2023-03-29T23:04:11.649Z,58.82
2023-03-29T23:06:39.546Z,58.93
2023-03-29T23:09:07.915Z,58.88
2023-03-29T23:11:36.236Z,58.91
2023-03-29T23:14:04.167Z,58.96
2023-03-29T23:16:32.219Z,59.01
2023-03-29T23:19:00.130Z,59.12
2023-03-29T23:21:28.268Z,59.09
2023-03-29T23:23:56.155Z,59.07
2023-03-29T23:26:24.077Z,59.11
2023-03-29T23:28:54.359Z,59.21
2023-03-29T23:31:23.834Z,59.14
2023-03-29T23:33:53.075Z,59.29
2023-03-29T23:36:27.056Z,59.22
2023-03-29T23:38:54.867Z,59.26
2023-03-29T23:41:22.971Z,59.28
2023-03-29T23:43:52.256Z,59.27
2023-03-29T23:46:21.393Z,59.23
2023-03-29T23:48:50.781Z,59.30
2023-03-29T23:51:23.086Z,59.23
2023-03-29T23:53:51.726Z,59.38
2023-03-29T23:56:21.459Z,59.36
2023-03-29T23:58:49.468Z,59.23
